sensor_id;sensor_type;location;lat;lon;timestamp;P1;durP1;ratioP1;P2;durP2;ratioP2
40849;SDS011;26571;41.610;25.380;2024-02-04T00:00:28;15.45;;;9.23;;
40849;SDS011;26571;41.610;25.380;2024-02-04T00:02:53;8.90;;;8.00;;
40849;SDS011;26571;41.610;25.380;2024-02-04T00:05:19;9.43;;;7.60;;
40849;SDS011;26571;41.610;25.380;2024-02-04T00:07:45;9.50;;;8.52;;
40849;SDS011;26571;41.610;25.380;2024-02-04T00:10:10;12.82;;;10.40;;
40849;SDS011;26571;41.610;25.380;2024-02-04T00:12:36;9.82;;;8.80;;
40849;SDS011;26571;41.610;25.380;2024-02-04T00:15:02;10.13;;;8.77;;
40849;SDS011;26571;41.610;25.380;2024-02-04T00:17:31;13.85;;;9.68;;
40849;SDS011;26571;41.610;25.380;2024-02-04T00:19:59;12.82;;;9.68;;
40849;SDS011;26571;41.610;25.380;2024-02-04T00:22:25;20.63;;;14.90;;
40849;SDS011;26571;41.610;25.380;2024-02-04T00:24:50;17.27;;;13.93;;
40849;SDS011;26571;41.610;25.380;2024-02-04T00:27:16;20.65;;;15.68;;
40849;SDS011;26571;41.610;25.380;2024-02-04T00:29:41;23.05;;;17.60;;
40849;SDS011;26571;41.610;25.380;2024-02-04T00:32:07;20.35;;;14.23;;
40849;SDS011;26571;41.610;25.380;2024-02-04T00:34:32;20.58;;;15.13;;
40849;SDS011;26571;41.610;25.380;2024-02-04T00:36:58;22.42;;;16.02;;
40849;SDS011;26571;41.610;25.380;2024-02-04T00:39:24;22.00;;;14.63;;
40849;SDS011;26571;41.610;25.380;2024-02-04T00:41:49;26.40;;;16.40;;
40849;SDS011;26571;41.610;25.380;2024-02-04T00:44:15;24.02;;;14.40;;
40849;SDS011;26571;41.610;25.380;2024-02-04T00:46:40;23.60;;;14.88;;
40849;SDS011;26571;41.610;25.380;2024-02-04T00:49:06;14.20;;;10.68;;
40849;SDS011;26571;41.610;25.380;2024-02-04T00:51:31;21.70;;;14.25;;
40849;SDS011;26571;41.610;25.380;2024-02-04T00:53:57;15.82;;;10.68;;
40849;SDS011;26571;41.610;25.380;2024-02-04T00:56:23;19.80;;;15.05;;
40849;SDS011;26571;41.610;25.380;2024-02-04T00:58:48;79.82;;;48.08;;
40849;SDS011;26571;41.610;25.380;2024-02-04T01:01:14;33.72;;;22.35;;
40849;SDS011;26571;41.610;25.380;2024-02-04T01:03:39;16.80;;;11.75;;
40849;SDS011;26571;41.610;25.380;2024-02-04T01:06:05;9.52;;;8.60;;
40849;SDS011;26571;41.610;25.380;2024-02-04T01:08:30;11.95;;;9.32;;
40849;SDS011;26571;41.610;25.380;2024-02-04T01:10:56;11.10;;;8.77;;
40849;SDS011;26571;41.610;25.380;2024-02-04T01:13:21;7.95;;;7.25;;
40849;SDS011;26571;41.610;25.380;2024-02-04T01:15:47;9.77;;;8.43;;
40849;SDS011;26571;41.610;25.380;2024-02-04T01:18:12;9.70;;;8.52;;
40849;SDS011;26571;41.610;25.380;2024-02-04T01:20:38;10.68;;;9.43;;
40849;SDS011;26571;41.610;25.380;2024-02-04T01:23:03;12.05;;;10.80;;
40849;SDS011;26571;41.610;25.380;2024-02-04T01:25:29;8.88;;;7.20;;
40849;SDS011;26571;41.610;25.380;2024-02-04T01:27:54;9.90;;;8.88;;
40849;SDS011;26571;41.610;25.380;2024-02-04T01:30:19;12.13;;;9.68;;
40849;SDS011;26571;41.610;25.380;2024-02-04T01:32:45;13.93;;;9.10;;
40849;SDS011;26571;41.610;25.380;2024-02-04T01:35:11;12.02;;;9.88;;
40849;SDS011;26571;41.610;25.380;2024-02-04T01:37:37;11.10;;;9.35;;
40849;SDS011;26571;41.610;25.380;2024-02-04T01:40:02;10.50;;;9.35;;
40849;SDS011;26571;41.610;25.380;2024-02-04T01:42:28;9.27;;;8.27;;
40849;SDS011;26571;41.610;25.380;2024-02-04T01:44:54;9.65;;;8.63;;
40849;SDS011;26571;41.610;25.380;2024-02-04T01:47:19;8.07;;;7.32;;
40849;SDS011;26571;41.610;25.380;2024-02-04T01:49:46;8.75;;;7.75;;
40849;SDS011;26571;41.610;25.380;2024-02-04T01:52:11;9.00;;;8.10;;
40849;SDS011;26571;41.610;25.380;2024-02-04T01:54:37;8.70;;;7.90;;
40849;SDS011;26571;41.610;25.380;2024-02-04T01:57:06;9.55;;;8.32;;
40849;SDS011;26571;41.610;25.380;2024-02-04T01:59:34;11.48;;;9.35;;
40849;SDS011;26571;41.610;25.380;2024-02-04T02:02:00;7.72;;;7.13;;
40849;SDS011;26571;41.610;25.380;2024-02-04T02:04:26;10.95;;;9.82;;
40849;SDS011;26571;41.610;25.380;2024-02-04T02:06:54;10.32;;;9.32;;
40849;SDS011;26571;41.610;25.380;2024-02-04T02:09:20;10.85;;;9.25;;
40849;SDS011;26571;41.610;25.380;2024-02-04T02:11:47;9.97;;;8.40;;
40849;SDS011;26571;41.610;25.380;2024-02-04T02:14:23;11.63;;;9.30;;
40849;SDS011;26571;41.610;25.380;2024-02-04T02:16:53;13.00;;;9.80;;
40849;SDS011;26571;41.610;25.380;2024-02-04T02:22:25;10.45;;;8.52;;
40849;SDS011;26571;41.610;25.380;2024-02-04T02:24:56;16.05;;;10.68;;
40849;SDS011;26571;41.610;25.380;2024-02-04T02:29:47;11.38;;;8.00;;
40849;SDS011;26571;41.610;25.380;2024-02-04T02:32:13;9.40;;;8.10;;
40849;SDS011;26571;41.610;25.380;2024-02-04T02:34:39;7.95;;;7.30;;
40849;SDS011;26571;41.610;25.380;2024-02-04T02:37:56;11.90;;;9.40;;
40849;SDS011;26571;41.610;25.380;2024-02-04T02:39:59;11.70;;;9.73;;
40849;SDS011;26571;41.610;25.380;2024-02-04T02:42:31;9.43;;;7.80;;
40849;SDS011;26571;41.610;25.380;2024-02-04T02:44:57;8.80;;;7.95;;
40849;SDS011;26571;41.610;25.380;2024-02-04T02:47:24;7.50;;;6.75;;
40849;SDS011;26571;41.610;25.380;2024-02-04T02:49:52;10.63;;;8.30;;
40849;SDS011;26571;41.610;25.380;2024-02-04T02:52:20;13.75;;;9.18;;
40849;SDS011;26571;41.610;25.380;2024-02-04T02:54:46;10.60;;;9.13;;
40849;SDS011;26571;41.610;25.380;2024-02-04T02:57:12;9.82;;;8.20;;
40849;SDS011;26571;41.610;25.380;2024-02-04T02:59:37;8.15;;;7.35;;
40849;SDS011;26571;41.610;25.380;2024-02-04T03:02:02;10.13;;;8.88;;
40849;SDS011;26571;41.610;25.380;2024-02-04T03:04:28;10.23;;;9.15;;
40849;SDS011;26571;41.610;25.380;2024-02-04T03:06:54;10.05;;;8.98;;
40849;SDS011;26571;41.610;25.380;2024-02-04T03:09:19;13.65;;;9.07;;
40849;SDS011;26571;41.610;25.380;2024-02-04T03:11:45;9.70;;;8.13;;
40849;SDS011;26571;41.610;25.380;2024-02-04T03:14:11;9.65;;;8.75;;
40849;SDS011;26571;41.610;25.380;2024-02-04T03:16:37;9.30;;;8.35;;
40849;SDS011;26571;41.610;25.380;2024-02-04T03:19:04;9.77;;;8.30;;
40849;SDS011;26571;41.610;25.380;2024-02-04T03:21:31;11.38;;;8.80;;
40849;SDS011;26571;41.610;25.380;2024-02-04T03:23:56;9.68;;;8.77;;
40849;SDS011;26571;41.610;25.380;2024-02-04T03:26:22;9.43;;;8.30;;
40849;SDS011;26571;41.610;25.380;2024-02-04T03:28:47;10.00;;;7.90;;
40849;SDS011;26571;41.610;25.380;2024-02-04T03:31:19;8.00;;;7.15;;
40849;SDS011;26571;41.610;25.380;2024-02-04T03:33:48;10.77;;;8.25;;
40849;SDS011;26571;41.610;25.380;2024-02-04T03:36:17;8.15;;;7.45;;
40849;SDS011;26571;41.610;25.380;2024-02-04T03:38:44;9.35;;;8.10;;
40849;SDS011;26571;41.610;25.380;2024-02-04T03:41:10;10.05;;;8.00;;
40849;SDS011;26571;41.610;25.380;2024-02-04T03:43:36;8.20;;;7.43;;
40849;SDS011;26571;41.610;25.380;2024-02-04T03:46:01;9.15;;;7.70;;
40849;SDS011;26571;41.610;25.380;2024-02-04T03:48:27;8.27;;;7.18;;
40849;SDS011;26571;41.610;25.380;2024-02-04T03:50:52;11.85;;;7.93;;
40849;SDS011;26571;41.610;25.380;2024-02-04T03:53:18;9.98;;;8.95;;
40849;SDS011;26571;41.610;25.380;2024-02-04T03:55:44;8.50;;;7.70;;
40849;SDS011;26571;41.610;25.380;2024-02-04T03:58:09;19.73;;;10.77;;
40849;SDS011;26571;41.610;25.380;2024-02-04T04:00:35;10.95;;;8.77;;
40849;SDS011;26571;41.610;25.380;2024-02-04T04:03:00;11.05;;;9.88;;
40849;SDS011;26571;41.610;25.380;2024-02-04T04:05:26;12.15;;;9.00;;
40849;SDS011;26571;41.610;25.380;2024-02-04T04:07:51;10.88;;;8.50;;
40849;SDS011;26571;41.610;25.380;2024-02-04T04:10:17;9.65;;;8.02;;
40849;SDS011;26571;41.610;25.380;2024-02-04T04:12:42;12.13;;;8.68;;
40849;SDS011;26571;41.610;25.380;2024-02-04T04:15:08;11.40;;;9.75;;
40849;SDS011;26571;41.610;25.380;2024-02-04T04:17:33;9.60;;;8.27;;
40849;SDS011;26571;41.610;25.380;2024-02-04T04:19:59;9.75;;;8.75;;
40849;SDS011;26571;41.610;25.380;2024-02-04T04:22:24;9.35;;;8.45;;
40849;SDS011;26571;41.610;25.380;2024-02-04T04:24:50;8.40;;;7.57;;
40849;SDS011;26571;41.610;25.380;2024-02-04T04:27:15;10.10;;;8.73;;
40849;SDS011;26571;41.610;25.380;2024-02-04T04:29:41;9.63;;;8.77;;
40849;SDS011;26571;41.610;25.380;2024-02-04T04:32:06;10.20;;;8.15;;
40849;SDS011;26571;41.610;25.380;2024-02-04T04:34:32;15.65;;;9.50;;
40849;SDS011;26571;41.610;25.380;2024-02-04T04:36:57;9.90;;;8.90;;
40849;SDS011;26571;41.610;25.380;2024-02-04T04:39:22;13.32;;;10.95;;
40849;SDS011;26571;41.610;25.380;2024-02-04T04:41:48;9.02;;;8.15;;
40849;SDS011;26571;41.610;25.380;2024-02-04T04:44:13;10.60;;;8.80;;
40849;SDS011;26571;41.610;25.380;2024-02-04T04:46:39;10.30;;;9.20;;
40849;SDS011;26571;41.610;25.380;2024-02-04T04:49:05;9.52;;;8.73;;
40849;SDS011;26571;41.610;25.380;2024-02-04T04:51:31;11.23;;;9.18;;
40849;SDS011;26571;41.610;25.380;2024-02-04T04:53:57;12.40;;;9.63;;
40849;SDS011;26571;41.610;25.380;2024-02-04T04:56:23;11.10;;;9.27;;
40849;SDS011;26571;41.610;25.380;2024-02-04T04:58:48;11.75;;;10.38;;
40849;SDS011;26571;41.610;25.380;2024-02-04T05:01:15;10.13;;;8.48;;
40849;SDS011;26571;41.610;25.380;2024-02-04T05:03:40;9.27;;;8.27;;
40849;SDS011;26571;41.610;25.380;2024-02-04T05:06:06;10.10;;;8.57;;
40849;SDS011;26571;41.610;25.380;2024-02-04T05:08:31;9.52;;;8.63;;
40849;SDS011;26571;41.610;25.380;2024-02-04T05:10:57;9.95;;;8.95;;
40849;SDS011;26571;41.610;25.380;2024-02-04T05:13:22;11.38;;;8.95;;
40849;SDS011;26571;41.610;25.380;2024-02-04T05:15:48;10.18;;;9.07;;
40849;SDS011;26571;41.610;25.380;2024-02-04T05:18:13;13.02;;;10.43;;
40849;SDS011;26571;41.610;25.380;2024-02-04T05:20:39;13.57;;;9.68;;
40849;SDS011;26571;41.610;25.380;2024-02-04T05:23:04;15.90;;;12.88;;
40849;SDS011;26571;41.610;25.380;2024-02-04T05:25:30;16.67;;;14.80;;
40849;SDS011;26571;41.610;25.380;2024-02-04T05:27:56;21.98;;;16.38;;
40849;SDS011;26571;41.610;25.380;2024-02-04T05:30:22;14.32;;;11.77;;
40849;SDS011;26571;41.610;25.380;2024-02-04T05:32:47;16.25;;;12.68;;
40849;SDS011;26571;41.610;25.380;2024-02-04T05:35:13;19.45;;;13.38;;
40849;SDS011;26571;41.610;25.380;2024-02-04T05:37:38;16.75;;;12.13;;
40849;SDS011;26571;41.610;25.380;2024-02-04T05:40:04;13.77;;;10.65;;
40849;SDS011;26571;41.610;25.380;2024-02-04T05:42:30;20.88;;;14.00;;
40849;SDS011;26571;41.610;25.380;2024-02-04T05:44:57;19.92;;;14.35;;
40849;SDS011;26571;41.610;25.380;2024-02-04T05:47:23;47.03;;;30.40;;
40849;SDS011;26571;41.610;25.380;2024-02-04T05:49:48;18.67;;;15.48;;
40849;SDS011;26571;41.610;25.380;2024-02-04T05:52:14;15.32;;;10.68;;
40849;SDS011;26571;41.610;25.380;2024-02-04T05:54:40;16.75;;;13.48;;
40849;SDS011;26571;41.610;25.380;2024-02-04T05:57:05;12.07;;;10.75;;
40849;SDS011;26571;41.610;25.380;2024-02-04T05:59:31;10.80;;;9.68;;
40849;SDS011;26571;41.610;25.380;2024-02-04T06:01:57;11.27;;;9.48;;
40849;SDS011;26571;41.610;25.380;2024-02-04T06:04:23;16.52;;;13.13;;
40849;SDS011;26571;41.610;25.380;2024-02-04T06:06:48;13.90;;;10.23;;
40849;SDS011;26571;41.610;25.380;2024-02-04T06:09:14;18.65;;;13.55;;
40849;SDS011;26571;41.610;25.380;2024-02-04T06:11:40;22.45;;;17.73;;
40849;SDS011;26571;41.610;25.380;2024-02-04T06:14:05;27.52;;;22.10;;
40849;SDS011;26571;41.610;25.380;2024-02-04T06:16:31;36.97;;;25.23;;
40849;SDS011;26571;41.610;25.380;2024-02-04T06:18:59;23.35;;;19.08;;
40849;SDS011;26571;41.610;25.380;2024-02-04T06:21:25;26.50;;;20.75;;
40849;SDS011;26571;41.610;25.380;2024-02-04T06:23:50;23.98;;;18.27;;
40849;SDS011;26571;41.610;25.380;2024-02-04T06:26:16;22.48;;;16.25;;
40849;SDS011;26571;41.610;25.380;2024-02-04T06:28:41;25.35;;;18.30;;
40849;SDS011;26571;41.610;25.380;2024-02-04T06:31:11;18.98;;;17.02;;
40849;SDS011;26571;41.610;25.380;2024-02-04T06:33:36;25.70;;;16.23;;
40849;SDS011;26571;41.610;25.380;2024-02-04T06:36:02;23.15;;;18.83;;
40849;SDS011;26571;41.610;25.380;2024-02-04T06:38:28;32.35;;;24.90;;
40849;SDS011;26571;41.610;25.380;2024-02-04T06:40:53;41.15;;;30.20;;
40849;SDS011;26571;41.610;25.380;2024-02-04T06:43:19;29.48;;;22.13;;
40849;SDS011;26571;41.610;25.380;2024-02-04T06:45:44;23.08;;;17.58;;
40849;SDS011;26571;41.610;25.380;2024-02-04T06:48:10;23.63;;;18.67;;
40849;SDS011;26571;41.610;25.380;2024-02-04T06:50:35;29.45;;;21.63;;
40849;SDS011;26571;41.610;25.380;2024-02-04T06:53:02;46.42;;;30.02;;
40849;SDS011;26571;41.610;25.380;2024-02-04T06:55:27;37.03;;;26.35;;
40849;SDS011;26571;41.610;25.380;2024-02-04T06:57:53;29.83;;;21.25;;
40849;SDS011;26571;41.610;25.380;2024-02-04T07:00:18;22.65;;;16.75;;
40849;SDS011;26571;41.610;25.380;2024-02-04T07:02:46;25.77;;;15.02;;
40849;SDS011;26571;41.610;25.380;2024-02-04T07:05:14;22.85;;;15.23;;
40849;SDS011;26571;41.610;25.380;2024-02-04T07:07:40;15.55;;;12.18;;
40849;SDS011;26571;41.610;25.380;2024-02-04T07:10:06;26.33;;;17.45;;
40849;SDS011;26571;41.610;25.380;2024-02-04T07:12:32;25.27;;;19.35;;
40849;SDS011;26571;41.610;25.380;2024-02-04T07:14:57;21.77;;;17.08;;
40849;SDS011;26571;41.610;25.380;2024-02-04T07:17:23;24.02;;;18.55;;
40849;SDS011;26571;41.610;25.380;2024-02-04T07:19:49;18.05;;;13.93;;
40849;SDS011;26571;41.610;25.380;2024-02-04T07:22:18;17.00;;;12.68;;
40849;SDS011;26571;41.610;25.380;2024-02-04T07:24:43;12.70;;;10.32;;
40849;SDS011;26571;41.610;25.380;2024-02-04T07:27:09;11.90;;;10.30;;
40849;SDS011;26571;41.610;25.380;2024-02-04T07:29:34;11.25;;;9.20;;
40849;SDS011;26571;41.610;25.380;2024-02-04T07:32:00;10.13;;;9.13;;
40849;SDS011;26571;41.610;25.380;2024-02-04T07:34:25;12.02;;;10.82;;
40849;SDS011;26571;41.610;25.380;2024-02-04T07:36:51;11.85;;;10.25;;
40849;SDS011;26571;41.610;25.380;2024-02-04T07:39:19;14.07;;;11.45;;
40849;SDS011;26571;41.610;25.380;2024-02-04T07:41:44;34.60;;;23.55;;
40849;SDS011;26571;41.610;25.380;2024-02-04T07:44:10;23.65;;;18.63;;
40849;SDS011;26571;41.610;25.380;2024-02-04T07:46:35;22.80;;;15.57;;
40849;SDS011;26571;41.610;25.380;2024-02-04T07:49:01;16.83;;;14.85;;
40849;SDS011;26571;41.610;25.380;2024-02-04T07:51:27;19.35;;;15.85;;
40849;SDS011;26571;41.610;25.380;2024-02-04T07:53:52;17.40;;;15.57;;
40849;SDS011;26571;41.610;25.380;2024-02-04T07:56:18;20.48;;;15.48;;
40849;SDS011;26571;41.610;25.380;2024-02-04T07:58:43;22.08;;;17.27;;
40849;SDS011;26571;41.610;25.380;2024-02-04T08:01:09;20.13;;;17.67;;
40849;SDS011;26571;41.610;25.380;2024-02-04T08:03:34;21.90;;;17.73;;
40849;SDS011;26571;41.610;25.380;2024-02-04T08:06:01;24.70;;;19.63;;
40849;SDS011;26571;41.610;25.380;2024-02-04T08:08:27;27.65;;;22.02;;
40849;SDS011;26571;41.610;25.380;2024-02-04T08:10:52;34.45;;;29.33;;
40849;SDS011;26571;41.610;25.380;2024-02-04T08:13:18;23.73;;;17.42;;
40849;SDS011;26571;41.610;25.380;2024-02-04T08:15:44;25.60;;;19.55;;
40849;SDS011;26571;41.610;25.380;2024-02-04T08:18:09;28.25;;;21.50;;
40849;SDS011;26571;41.610;25.380;2024-02-04T08:20:35;27.60;;;20.92;;
40849;SDS011;26571;41.610;25.380;2024-02-04T08:23:03;20.27;;;17.38;;
40849;SDS011;26571;41.610;25.380;2024-02-04T08:25:31;46.42;;;30.48;;
40849;SDS011;26571;41.610;25.380;2024-02-04T08:27:58;37.55;;;26.08;;
40849;SDS011;26571;41.610;25.380;2024-02-04T08:30:23;118.88;;;71.28;;
40849;SDS011;26571;41.610;25.380;2024-02-04T08:32:49;49.83;;;30.83;;
40849;SDS011;26571;41.610;25.380;2024-02-04T08:35:14;31.67;;;23.05;;
40849;SDS011;26571;41.610;25.380;2024-02-04T08:37:40;24.25;;;19.35;;
40849;SDS011;26571;41.610;25.380;2024-02-04T08:40:05;22.17;;;18.40;;
40849;SDS011;26571;41.610;25.380;2024-02-04T08:42:31;23.25;;;17.65;;
40849;SDS011;26571;41.610;25.380;2024-02-04T08:44:57;23.65;;;18.30;;
40849;SDS011;26571;41.610;25.380;2024-02-04T08:47:22;22.67;;;16.13;;
40849;SDS011;26571;41.610;25.380;2024-02-04T08:49:48;37.63;;;21.63;;
40849;SDS011;26571;41.610;25.380;2024-02-04T08:52:14;23.45;;;17.25;;
40849;SDS011;26571;41.610;25.380;2024-02-04T08:54:40;31.38;;;20.25;;
40849;SDS011;26571;41.610;25.380;2024-02-04T08:57:05;27.73;;;19.50;;
40849;SDS011;26571;41.610;25.380;2024-02-04T08:59:30;28.30;;;21.10;;
40849;SDS011;26571;41.610;25.380;2024-02-04T09:01:56;29.20;;;22.08;;
40849;SDS011;26571;41.610;25.380;2024-02-04T09:04:21;18.92;;;13.57;;
40849;SDS011;26571;41.610;25.380;2024-02-04T09:06:47;18.92;;;16.23;;
40849;SDS011;26571;41.610;25.380;2024-02-04T09:09:12;18.50;;;15.32;;
40849;SDS011;26571;41.610;25.380;2024-02-04T09:11:38;21.88;;;17.42;;
40849;SDS011;26571;41.610;25.380;2024-02-04T09:14:04;17.27;;;15.10;;
40849;SDS011;26571;41.610;25.380;2024-02-04T09:16:29;35.97;;;21.58;;
40849;SDS011;26571;41.610;25.380;2024-02-04T09:18:54;21.77;;;17.75;;
40849;SDS011;26571;41.610;25.380;2024-02-04T09:21:20;18.25;;;14.73;;
40849;SDS011;26571;41.610;25.380;2024-02-04T09:23:47;19.83;;;15.00;;
40849;SDS011;26571;41.610;25.380;2024-02-04T09:26:12;19.33;;;15.25;;
40849;SDS011;26571;41.610;25.380;2024-02-04T09:28:38;18.38;;;15.15;;
40849;SDS011;26571;41.610;25.380;2024-02-04T09:31:03;18.90;;;14.55;;
40849;SDS011;26571;41.610;25.380;2024-02-04T09:33:29;18.80;;;16.25;;
40849;SDS011;26571;41.610;25.380;2024-02-04T09:35:55;21.45;;;17.13;;
40849;SDS011;26571;41.610;25.380;2024-02-04T09:38:20;17.17;;;14.15;;
40849;SDS011;26571;41.610;25.380;2024-02-04T09:40:46;15.73;;;14.00;;
40849;SDS011;26571;41.610;25.380;2024-02-04T09:43:12;18.95;;;15.20;;
40849;SDS011;26571;41.610;25.380;2024-02-04T09:45:38;17.33;;;14.95;;
40849;SDS011;26571;41.610;25.380;2024-02-04T09:48:08;26.48;;;18.52;;
40849;SDS011;26571;41.610;25.380;2024-02-04T09:50:34;20.98;;;16.65;;
40849;SDS011;26571;41.610;25.380;2024-02-04T09:52:59;25.73;;;17.52;;
40849;SDS011;26571;41.610;25.380;2024-02-04T09:55:49;30.10;;;20.55;;
40849;SDS011;26571;41.610;25.380;2024-02-04T09:58:15;19.00;;;13.82;;
40849;SDS011;26571;41.610;25.380;2024-02-04T10:04:28;17.95;;;13.85;;
40849;SDS011;26571;41.610;25.380;2024-02-04T10:06:53;16.95;;;13.02;;
40849;SDS011;26571;41.610;25.380;2024-02-04T10:09:19;17.85;;;15.15;;
40849;SDS011;26571;41.610;25.380;2024-02-04T10:11:44;16.60;;;13.40;;
40849;SDS011;26571;41.610;25.380;2024-02-04T10:14:10;19.75;;;14.05;;
40849;SDS011;26571;41.610;25.380;2024-02-04T10:16:35;23.65;;;18.30;;
40849;SDS011;26571;41.610;25.380;2024-02-04T10:19:01;19.13;;;14.20;;
40849;SDS011;26571;41.610;25.380;2024-02-04T10:21:28;22.67;;;17.05;;
40849;SDS011;26571;41.610;25.380;2024-02-04T10:23:53;17.50;;;14.93;;
40849;SDS011;26571;41.610;25.380;2024-02-04T10:26:20;22.27;;;15.27;;
40849;SDS011;26571;41.610;25.380;2024-02-04T10:28:46;20.65;;;15.55;;
40849;SDS011;26571;41.610;25.380;2024-02-04T10:31:12;18.67;;;14.95;;
40849;SDS011;26571;41.610;25.380;2024-02-04T10:33:38;14.82;;;12.85;;
40849;SDS011;26571;41.610;25.380;2024-02-04T10:38:31;18.33;;;14.05;;
40849;SDS011;26571;41.610;25.380;2024-02-04T10:40:59;51.37;;;33.17;;
40849;SDS011;26571;41.610;25.380;2024-02-04T10:43:28;21.52;;;17.20;;
40849;SDS011;26571;41.610;25.380;2024-02-04T10:45:59;21.25;;;14.57;;
40849;SDS011;26571;41.610;25.380;2024-02-04T10:48:28;21.40;;;16.00;;
40849;SDS011;26571;41.610;25.380;2024-02-04T10:51:00;24.10;;;17.15;;
40849;SDS011;26571;41.610;25.380;2024-02-04T10:53:27;26.63;;;17.00;;
40849;SDS011;26571;41.610;25.380;2024-02-04T10:55:53;24.77;;;18.83;;
40849;SDS011;26571;41.610;25.380;2024-02-04T10:58:26;27.52;;;21.45;;
40849;SDS011;26571;41.610;25.380;2024-02-04T11:00:52;26.27;;;19.52;;
40849;SDS011;26571;41.610;25.380;2024-02-04T11:03:18;25.75;;;20.15;;
40849;SDS011;26571;41.610;25.380;2024-02-04T11:05:44;33.17;;;22.98;;
40849;SDS011;26571;41.610;25.380;2024-02-04T11:08:11;33.28;;;24.27;;
40849;SDS011;26571;41.610;25.380;2024-02-04T11:10:38;28.73;;;21.98;;
40849;SDS011;26571;41.610;25.380;2024-02-04T11:13:04;27.25;;;22.60;;
40849;SDS011;26571;41.610;25.380;2024-02-04T11:15:35;33.00;;;25.10;;
40849;SDS011;26571;41.610;25.380;2024-02-04T11:18:11;35.72;;;26.65;;
40849;SDS011;26571;41.610;25.380;2024-02-04T11:20:43;36.63;;;28.08;;
40849;SDS011;26571;41.610;25.380;2024-02-04T11:23:40;47.17;;;31.95;;
40849;SDS011;26571;41.610;25.380;2024-02-04T11:26:13;34.38;;;23.48;;
40849;SDS011;26571;41.610;25.380;2024-02-04T11:28:41;34.97;;;22.52;;
40849;SDS011;26571;41.610;25.380;2024-02-04T11:31:19;39.83;;;27.83;;
40849;SDS011;26571;41.610;25.380;2024-02-04T11:33:45;45.83;;;30.05;;
40849;SDS011;26571;41.610;25.380;2024-02-04T11:36:14;36.30;;;24.50;;
40849;SDS011;26571;41.610;25.380;2024-02-04T11:38:43;31.77;;;22.85;;
40849;SDS011;26571;41.610;25.380;2024-02-04T11:41:21;26.58;;;21.00;;
40849;SDS011;26571;41.610;25.380;2024-02-04T11:43:51;36.65;;;21.55;;
40849;SDS011;26571;41.610;25.380;2024-02-04T11:46:18;23.75;;;18.30;;
40849;SDS011;26571;41.610;25.380;2024-02-04T11:48:50;22.23;;;17.35;;
40849;SDS011;26571;41.610;25.380;2024-02-04T11:51:18;30.13;;;17.77;;
40849;SDS011;26571;41.610;25.380;2024-02-04T11:53:47;26.58;;;16.92;;
40849;SDS011;26571;41.610;25.380;2024-02-04T11:59:18;131.35;;;62.72;;
40849;SDS011;26571;41.610;25.380;2024-02-04T12:01:46;37.45;;;24.65;;
40849;SDS011;26571;41.610;25.380;2024-02-04T12:04:12;17.58;;;13.43;;
40849;SDS011;26571;41.610;25.380;2024-02-04T12:06:40;22.48;;;15.40;;
40849;SDS011;26571;41.610;25.380;2024-02-04T12:09:07;32.55;;;18.60;;
40849;SDS011;26571;41.610;25.380;2024-02-04T12:14:03;36.83;;;23.13;;
40849;SDS011;26571;41.610;25.380;2024-02-04T12:16:32;25.35;;;20.02;;
40849;SDS011;26571;41.610;25.380;2024-02-04T12:19:00;29.35;;;19.58;;
40849;SDS011;26571;41.610;25.380;2024-02-04T12:21:28;25.27;;;20.70;;
40849;SDS011;26571;41.610;25.380;2024-02-04T12:23:54;37.50;;;24.75;;
40849;SDS011;26571;41.610;25.380;2024-02-04T12:26:20;39.30;;;26.17;;
40849;SDS011;26571;41.610;25.380;2024-02-04T12:28:50;23.75;;;16.63;;
40849;SDS011;26571;41.610;25.380;2024-02-04T12:31:18;24.52;;;16.58;;
40849;SDS011;26571;41.610;25.380;2024-02-04T12:36:42;32.88;;;22.30;;
40849;SDS011;26571;41.610;25.380;2024-02-04T12:39:09;63.03;;;36.88;;
40849;SDS011;26571;41.610;25.380;2024-02-04T12:41:37;52.63;;;30.83;;
40849;SDS011;26571;41.610;25.380;2024-02-04T12:44:02;45.38;;;32.15;;
40849;SDS011;26571;41.610;25.380;2024-02-04T12:46:30;58.17;;;36.67;;
40849;SDS011;26571;41.610;25.380;2024-02-04T12:48:56;47.33;;;32.95;;
40849;SDS011;26571;41.610;25.380;2024-02-04T12:51:23;50.72;;;32.20;;
40849;SDS011;26571;41.610;25.380;2024-02-04T12:54:29;50.63;;;31.58;;
40849;SDS011;26571;41.610;25.380;2024-02-04T12:59:31;28.42;;;22.63;;
40849;SDS011;26571;41.610;25.380;2024-02-04T13:02:03;19.90;;;10.93;;
40849;SDS011;26571;41.610;25.380;2024-02-04T13:04:36;15.23;;;10.65;;
40849;SDS011;26571;41.610;25.380;2024-02-04T13:07:09;5.88;;;5.32;;
40849;SDS011;26571;41.610;25.380;2024-02-04T13:09:42;10.60;;;8.68;;
40849;SDS011;26571;41.610;25.380;2024-02-04T13:12:09;6.65;;;5.53;;
40849;SDS011;26571;41.610;25.380;2024-02-04T13:14:36;8.18;;;5.68;;
40849;SDS011;26571;41.610;25.380;2024-02-04T13:17:02;7.07;;;6.37;;
40849;SDS011;26571;41.610;25.380;2024-02-04T13:19:36;13.05;;;6.38;;
40849;SDS011;26571;41.610;25.380;2024-02-04T13:22:03;15.27;;;9.90;;
40849;SDS011;26571;41.610;25.380;2024-02-04T13:24:29;14.55;;;9.18;;
40849;SDS011;26571;41.610;25.380;2024-02-04T13:26:56;19.10;;;12.17;;
40849;SDS011;26571;41.610;25.380;2024-02-04T13:29:22;46.78;;;28.63;;
40849;SDS011;26571;41.610;25.380;2024-02-04T13:31:47;31.38;;;21.40;;
40849;SDS011;26571;41.610;25.380;2024-02-04T13:34:13;17.88;;;11.77;;
40849;SDS011;26571;41.610;25.380;2024-02-04T13:36:39;16.33;;;11.75;;
40849;SDS011;26571;41.610;25.380;2024-02-04T13:39:04;9.73;;;7.53;;
40849;SDS011;26571;41.610;25.380;2024-02-04T13:41:31;14.48;;;10.88;;
40849;SDS011;26571;41.610;25.380;2024-02-04T13:43:56;10.88;;;9.23;;
40849;SDS011;26571;41.610;25.380;2024-02-04T13:46:22;15.23;;;8.45;;
40849;SDS011;26571;41.610;25.380;2024-02-04T13:48:48;12.85;;;8.30;;
40849;SDS011;26571;41.610;25.380;2024-02-04T13:51:13;12.20;;;8.35;;
40849;SDS011;26571;41.610;25.380;2024-02-04T13:53:39;25.02;;;17.27;;
40849;SDS011;26571;41.610;25.380;2024-02-04T13:56:04;31.80;;;20.80;;
40849;SDS011;26571;41.610;25.380;2024-02-04T13:58:30;27.52;;;19.13;;
40849;SDS011;26571;41.610;25.380;2024-02-04T14:00:55;27.60;;;19.27;;
40849;SDS011;26571;41.610;25.380;2024-02-04T14:03:21;4.57;;;4.18;;
40849;SDS011;26571;41.610;25.380;2024-02-04T14:05:46;9.73;;;7.30;;
40849;SDS011;26571;41.610;25.380;2024-02-04T14:08:12;10.65;;;8.18;;
40849;SDS011;26571;41.610;25.380;2024-02-04T14:10:37;12.45;;;8.25;;
40849;SDS011;26571;41.610;25.380;2024-02-04T14:13:04;34.67;;;22.30;;
40849;SDS011;26571;41.610;25.380;2024-02-04T14:15:30;22.25;;;18.17;;
40849;SDS011;26571;41.610;25.380;2024-02-04T14:17:56;23.17;;;16.17;;
40849;SDS011;26571;41.610;25.380;2024-02-04T14:20:22;88.43;;;49.85;;
40849;SDS011;26571;41.610;25.380;2024-02-04T14:22:49;63.33;;;36.60;;
40849;SDS011;26571;41.610;25.380;2024-02-04T14:25:15;24.73;;;18.92;;
40849;SDS011;26571;41.610;25.380;2024-02-04T14:27:41;21.13;;;13.15;;
40849;SDS011;26571;41.610;25.380;2024-02-04T14:30:07;8.63;;;7.18;;
40849;SDS011;26571;41.610;25.380;2024-02-04T14:32:33;7.40;;;5.70;;
40849;SDS011;26571;41.610;25.380;2024-02-04T14:34:58;11.07;;;8.70;;